Time;durP1;ratioP1;P1;durP2;ratioP2;P2;SDS_P1;SDS_P2;PMS_P1;PMS_P2;Temp;Humidity;BMP_temperature;BMP_pressure;BME280_temperature;BME280_humidity;BME280_pressure;Samples;Min_cycle;Max_cycle;Signal;HPM_P1;HPM_P2
2022/08/28 00:01:47;;;;;;;25.30;22.70;;;20.20;99.90;;;;;;5012205;28;20179;-69
2022/08/28 00:04:13;;;;;;;24.20;21.83;;;20.20;99.90;;;;;;5013605;28;20253;-69
2022/08/28 00:06:39;;;;;;;27.53;24.63;;;20.20;99.90;;;;;;5013568;28;20198;-69
2022/08/28 00:09:04;;;;;;;30.73;27.73;;;20.30;99.90;;;;;;5013756;28;20184;-69
2022/08/28 00:11:30;;;;;;;26.13;23.47;;;20.50;99.90;;;;;;5013682;28;20175;-69
2022/08/28 00:13:57;;;;;;;25.43;22.90;;;20.60;99.90;;;;;;5013700;28;20661;-69
2022/08/28 00:16:23;;;;;;;27.20;24.50;;;20.60;99.90;;;;;;4995374;28;20179;-69
2022/08/28 00:18:48;;;;;;;24.80;22.40;;;20.70;99.90;;;;;;5013902;28;20431;-69
2022/08/28 00:21:14;;;;;;;24.03;21.83;;;20.70;99.90;;;;;;5013725;28;20182;-69
2022/08/28 00:23:41;;;;;;;27.87;25.03;;;20.70;99.90;;;;;;5013604;28;20179;-69
2022/08/28 00:26:07;;;;;;;26.27;23.77;;;20.70;99.90;;;;;;5013582;28;20180;-69
2022/08/28 00:28:32;;;;;;;28.63;25.80;;;20.70;99.90;;;;;;5012880;28;20467;-69
2022/08/28 00:30:59;;;;;;;26.30;23.50;;;20.70;99.90;;;;;;5013231;28;20172;-70
2022/08/28 00:33:34;;;;;;;24.53;22.13;;;20.70;99.90;;;;;;5012775;28;20178;-69
2022/08/28 00:36:01;;;;;;;23.97;21.63;;;20.80;99.90;;;;;;5013728;28;20795;-69
2022/08/28 00:38:28;;;;;;;27.97;25.00;;;20.80;99.90;;;;;;5013316;28;20530;-68
2022/08/28 00:40:58;;;;;;;29.10;26.00;;;20.80;99.90;;;;;;5013356;28;20418;-68
2022/08/28 00:43:37;;;;;;;28.70;25.60;;;20.80;99.90;;;;;;5013394;28;20457;-67
2022/08/28 00:46:09;;;;;;;27.47;24.77;;;20.80;99.90;;;;;;5013096;28;20486;-68
2022/08/28 00:48:35;;;;;;;26.40;23.73;;;20.70;99.90;;;;;;5012458;28;20439;-69
2022/08/28 00:53:47;;;;;;;24.83;22.53;;;20.80;99.90;;;;;;5013543;28;20437;-68
2022/08/28 00:56:15;;;;;;;28.00;25.20;;;20.80;99.90;;;;;;5013013;28;20407;-68
2022/08/28 00:58:43;;;;;;;24.63;22.10;;;20.70;99.90;;;;;;5012985;28;20183;-68
2022/08/28 01:01:11;;;;;;;26.27;23.77;;;20.70;99.90;;;;;;5012046;28;20411;-68
2022/08/28 01:03:37;;;;;;;27.67;24.80;;;20.70;99.90;;;;;;5013118;28;20430;-68
2022/08/28 01:06:03;;;;;;;27.93;25.23;;;20.70;99.90;;;;;;5013352;28;20478;-68
2022/08/28 01:08:30;;;;;;;26.93;24.30;;;20.70;99.90;;;;;;5012835;28;20669;-68
2022/08/28 01:10:58;;;;;;;27.53;24.83;;;20.70;99.90;;;;;;5013070;28;20406;-68
2022/08/28 01:13:25;;;;;;;24.00;21.70;;;20.70;99.90;;;;;;5013148;28;20777;-68
2022/08/28 01:15:52;;;;;;;32.53;29.00;;;20.70;99.90;;;;;;5013054;28;20773;-68
2022/08/28 01:18:20;;;;;;;31.07;27.90;;;20.70;99.90;;;;;;5014169;28;20427;-68
2022/08/28 01:21:02;;;;;;;30.27;27.13;;;20.70;99.90;;;;;;5016771;28;20414;-68
2022/08/28 01:23:54;;;;;;;31.67;28.37;;;20.70;99.90;;;;;;5016658;28;20391;-68
2022/08/28 01:26:20;;;;;;;31.60;27.80;;;20.70;99.90;;;;;;4998784;28;20437;-68
2022/08/28 01:28:46;;;;;;;30.30;27.20;;;20.60;99.90;;;;;;5016506;28;20418;-68
2022/08/28 01:31:14;;;;;;;25.10;22.73;;;20.60;99.90;;;;;;5016368;28;20548;-68
2022/08/28 01:33:41;;;;;;;24.77;22.40;;;20.50;99.90;;;;;;5016009;28;20440;-68
2022/08/28 01:36:07;;;;;;;29.30;26.33;;;20.50;99.90;;;;;;5016563;28;20398;-68
2022/08/28 01:38:33;;;;;;;32.30;28.73;;;20.40;99.90;;;;;;5016616;28;20411;-68
2022/08/28 01:40:58;;;;;;;24.47;21.97;;;20.40;99.90;;;;;;5016214;28;20171;-69
2022/08/28 01:43:26;;;;;;;25.00;22.50;;;20.30;99.90;;;;;;5016519;28;20824;-69
2022/08/28 01:45:55;;;;;;;25.53;23.00;;;20.30;99.90;;;;;;5016288;28;20281;-68
2022/08/28 01:48:24;;;;;;;24.23;21.83;;;20.30;99.90;;;;;;5015500;28;20450;-70
2022/08/28 01:50:51;;;;;;;25.10;22.60;;;20.40;99.90;;;;;;5016283;28;20388;-69
2022/08/28 01:53:22;;;;;;;23.67;21.27;;;20.30;99.90;;;;;;5016201;28;20926;-69
2022/08/28 01:55:49;;;;;;;26.43;23.77;;;20.30;99.90;;;;;;5016216;28;20474;-69
2022/08/28 01:58:15;;;;;;;29.67;26.73;;;20.30;99.90;;;;;;5015797;28;20433;-68
2022/08/28 02:00:41;;;;;;;27.30;24.43;;;20.20;99.90;;;;;;5016249;28;20402;-69
2022/08/28 02:03:07;;;;;;;27.07;24.40;;;20.20;99.90;;;;;;5014426;28;20684;-69
2022/08/28 02:05:34;;;;;;;24.80;22.40;;;20.20;99.90;;;;;;5015985;28;20450;-69
2022/08/28 02:08:02;;;;;;;25.43;22.70;;;20.20;99.90;;;;;;5015729;28;20403;-69
2022/08/28 02:10:29;;;;;;;25.23;22.77;;;20.20;99.90;;;;;;5016140;28;20403;-68
2022/08/28 02:12:56;;;;;;;28.53;25.50;;;20.20;99.90;;;;;;5014723;28;20418;-69
2022/08/28 02:15:24;;;;;;;23.37;20.97;;;20.20;99.90;;;;;;5015454;28;20403;-69
2022/08/28 02:17:50;;;;;;;25.37;22.77;;;20.20;99.90;;;;;;5015884;28;20407;-69
2022/08/28 02:20:16;;;;;;;22.63;20.40;;;20.30;99.90;;;;;;5014460;28;20423;-69
2022/08/28 02:22:41;;;;;;;24.67;22.00;;;20.40;99.90;;;;;;5015504;28;20522;-69
2022/08/28 02:25:08;;;;;;;26.83;24.20;;;20.50;99.90;;;;;;5013336;28;20200;-69
2022/08/28 02:27:36;;;;;;;22.40;20.20;;;20.50;99.90;;;;;;5005994;28;20176;-69
2022/08/28 02:30:04;;;;;;;23.93;21.43;;;20.50;99.90;;;;;;4995637;28;20438;-69
2022/08/28 02:32:29;;;;;;;27.47;22.60;;;20.60;99.90;;;;;;5015394;28;20415;-69
2022/08/28 02:34:55;;;;;;;26.20;23.70;;;20.60;99.90;;;;;;5015305;28;20918;-69
2022/08/28 02:37:23;;;;;;;22.07;19.87;;;20.60;99.90;;;;;;5015434;28;20184;-69
2022/08/28 02:39:52;;;;;;;25.90;23.23;;;20.50;99.90;;;;;;5014982;28;20427;-68
2022/08/28 02:42:18;;;;;;;22.30;20.00;;;20.40;99.90;;;;;;5015436;28;20403;-68
2022/08/28 02:44:44;;;;;;;23.90;21.50;;;20.40;99.90;;;;;;5015029;28;20461;-68
2022/08/28 02:47:09;;;;;;;24.33;21.87;;;20.50;99.90;;;;;;5015127;28;20247;-68
2022/08/28 02:49:35;;;;;;;27.10;24.40;;;20.60;99.90;;;;;;5014666;28;20216;-68
2022/08/28 02:52:00;;;;;;;25.77;23.03;;;20.60;99.90;;;;;;5014948;28;20200;-69
2022/08/28 02:54:26;;;;;;;25.07;22.63;;;20.60;99.90;;;;;;4997358;28;20218;-68
2022/08/28 02:56:53;;;;;;;24.43;22.00;;;20.60;99.90;;;;;;5015269;28;20670;-69
2022/08/28 02:59:18;;;;;;;24.23;21.83;;;20.70;99.90;;;;;;5014948;28;20226;-69
2022/08/28 03:01:44;;;;;;;24.23;21.70;;;20.70;99.90;;;;;;5013984;28;20916;-69
2022/08/28 03:04:10;;;;;;;25.77;23.33;;;20.70;99.90;;;;;;5013972;28;20188;-69
2022/08/28 03:06:35;;;;;;;24.20;21.87;;;20.70;99.90;;;;;;5014570;28;20176;-69
2022/08/28 03:09:01;;;;;;;23.97;21.67;;;20.70;99.90;;;;;;5014752;28;20667;-69
2022/08/28 03:11:27;;;;;;;26.50;23.83;;;20.70;99.90;;;;;;5014724;28;20168;-69
2022/08/28 03:13:53;;;;;;;27.13;24.33;;;20.90;99.90;;;;;;5014435;28;20239;-69
2022/08/28 03:16:19;;;;;;;23.60;21.30;;;20.70;99.90;;;;;;5014337;28;20172;-69
2022/08/28 03:18:44;;;;;;;27.07;24.13;;;20.70;99.90;;;;;;5013872;28;20426;-68
2022/08/28 03:21:10;;;;;;;25.97;23.17;;;20.70;99.90;;;;;;5014814;28;20534;-69
2022/08/28 03:23:36;;;;;;;24.60;21.90;;;20.80;99.90;;;;;;5015219;28;20168;-69
2022/08/28 03:26:08;;;;;;;24.67;22.13;;;20.70;99.90;;;;;;5014382;28;20508;-68
2022/08/28 03:28:38;;;;;;;23.83;21.43;;;20.60;99.90;;;;;;5015103;28;20180;-69
2022/08/28 03:31:04;;;;;;;24.03;21.63;;;20.70;99.90;;;;;;5014191;28;20904;-68
2022/08/28 03:33:31;;;;;;;22.60;20.30;;;20.50;99.90;;;;;;5013834;28;20410;-69
2022/08/28 03:35:58;;;;;;;27.00;24.20;;;20.20;99.90;;;;;;5014365;28;20489;-69
2022/08/28 03:38:24;;;;;;;24.80;22.20;;;20.00;99.90;;;;;;5014532;28;20423;-69
2022/08/28 03:40:50;;;;;;;26.73;23.87;;;20.10;99.90;;;;;;5013941;28;20425;-69
2022/08/28 03:43:19;;;;;;;25.33;22.80;;;20.20;99.90;;;;;;5014465;28;20677;-69
2022/08/28 03:45:57;;;;;;;26.23;23.40;;;20.20;99.90;;;;;;5014930;28;20450;-69
2022/08/28 03:48:24;;;;;;;23.60;21.13;;;20.20;99.90;;;;;;5013534;28;20493;-69
2022/08/28 03:50:52;;;;;;;28.03;20.23;;;20.20;99.90;;;;;;5014102;28;20772;-68
2022/08/28 03:53:19;;;;;;;30.37;27.27;;;20.00;99.90;;;;;;5014549;28;20469;-68
2022/08/28 03:55:45;;;;;;;25.33;22.80;;;20.00;99.90;;;;;;5013711;28;20472;-68
2022/08/28 03:58:10;;;;;;;27.97;24.23;;;20.10;99.90;;;;;;5013901;28;20505;-68
2022/08/28 04:00:36;;;;;;;22.13;19.83;;;20.30;99.90;;;;;;5013868;28;20410;-67
2022/08/28 04:03:03;;;;;;;23.33;21.13;;;20.50;99.90;;;;;;5012322;28;20636;-68
2022/08/28 04:05:28;;;;;;;26.93;24.17;;;20.40;99.90;;;;;;5013994;28;20291;-68
2022/08/28 04:07:54;;;;;;;22.43;20.13;;;20.30;99.90;;;;;;4996089;28;20530;-68
2022/08/28 04:10:20;;;;;;;23.20;20.83;;;20.20;99.90;;;;;;5013548;28;20167;-67
2022/08/28 04:12:45;;;;;;;23.13;20.83;;;20.10;99.90;;;;;;5013981;28;20251;-68
2022/08/28 04:15:12;;;;;;;25.63;23.13;;;20.30;99.90;;;;;;5013707;28;20175;-68
2022/08/28 04:17:40;;;;;;;22.50;20.40;;;20.50;99.90;;;;;;5012418;28;20273;-68
2022/08/28 04:20:07;;;;;;;23.93;21.57;;;20.60;99.90;;;;;;5013534;28;20445;-68
2022/08/28 04:22:33;;;;;;;21.17;19.07;;;20.70;99.90;;;;;;5013745;28;20429;-68
2022/08/28 04:24:59;;;;;;;23.37;21.07;;;20.90;99.90;;;;;;5013489;28;20547;-68
2022/08/28 04:27:25;;;;;;;22.50;20.20;;;21.00;99.90;;;;;;5013504;28;20838;-68
2022/08/28 04:29:50;;;;;;;25.33;22.73;;;21.10;99.90;;;;;;5012808;28;20932;-68
2022/08/28 04:32:16;;;;;;;24.27;21.87;;;21.00;99.90;;;;;;5012891;28;20632;-68
2022/08/28 04:34:41;;;;;;;24.40;21.90;;;20.90;99.90;;;;;;5013724;28;20184;-68
2022/08/28 04:37:07;;;;;;;24.13;21.60;;;20.90;99.90;;;;;;5011973;28;20657;-68
2022/08/28 04:39:33;;;;;;;24.67;22.07;;;20.90;99.90;;;;;;5013650;28;20223;-68
2022/08/28 04:41:59;;;;;;;23.60;21.03;;;21.00;99.90;;;;;;5012802;28;20554;-69
2022/08/28 04:44:24;;;;;;;22.97;20.60;;;21.00;99.90;;;;;;5013163;28;20219;-69
2022/08/28 04:46:50;;;;;;;25.50;22.83;;;20.90;99.90;;;;;;5013154;28;20826;-69
2022/08/28 04:49:16;;;;;;;22.50;20.03;;;21.00;99.90;;;;;;5012946;28;20207;-69
2022/08/28 04:51:42;;;;;;;23.23;20.67;;;21.00;99.90;;;;;;5013191;28;20172;-69
2022/08/28 04:54:09;;;;;;;21.93;19.73;;;21.00;99.90;;;;;;4998588;28;20411;-69
2022/08/28 04:56:35;;;;;;;25.00;22.43;;;20.60;99.90;;;;;;5017505;28;20266;-69
2022/08/28 04:59:02;;;;;;;21.80;19.63;;;20.70;99.90;;;;;;5017143;28;20453;-69
2022/08/28 05:01:28;;;;;;;20.47;18.43;;;20.60;99.90;;;;;;5017188;28;20419;-69
2022/08/28 05:03:56;;;;;;;23.00;18.77;;;20.40;99.90;;;;;;5015676;28;20504;-69
2022/08/28 05:06:25;;;;;;;25.17;22.50;;;20.40;99.90;;;;;;5017092;28;20652;-70
2022/08/28 05:08:51;;;;;;;22.17;19.83;;;20.40;99.90;;;;;;5017021;28;20441;-69
2022/08/28 05:11:20;;;;;;;23.70;19.40;;;20.60;99.90;;;;;;5016841;28;20406;-69
2022/08/28 05:13:47;;;;;;;22.63;20.30;;;20.70;99.90;;;;;;5017016;28;20406;-69
2022/08/28 05:16:13;;;;;;;22.83;20.30;;;20.80;99.90;;;;;;5011926;28;20755;-70
2022/08/28 05:18:39;;;;;;;25.23;22.80;;;20.80;99.90;;;;;;5002474;28;20446;-69
2022/08/28 05:21:13;;;;;;;21.90;19.60;;;20.40;99.90;;;;;;5008869;28;20403;-69
2022/08/28 05:23:40;;;;;;;23.07;20.77;;;20.30;99.90;;;;;;5016147;28;20582;-69
2022/08/28 05:26:13;;;;;;;20.10;17.97;;;20.20;99.90;;;;;;5015707;28;20971;-69
2022/08/28 05:28:39;;;;;;;25.50;21.10;;;20.20;99.90;;;;;;5016462;28;20485;-69
2022/08/28 05:31:16;;;;;;;22.50;19.50;;;20.40;99.90;;;;;;5016572;28;20888;-69
2022/08/28 05:33:46;;;;;;;22.30;20.00;;;20.40;99.90;;;;;;5016619;28;20486;-69
2022/08/28 05:36:12;;;;;;;23.93;21.60;;;20.10;99.90;;;;;;5016462;28;20411;-68
2022/08/28 05:38:38;;;;;;;24.20;21.73;;;20.30;99.90;;;;;;5015479;28;20512;-68
2022/08/28 05:41:04;;;;;;;22.33;20.13;;;20.40;99.90;;;;;;5015693;28;20497;-68
2022/08/28 05:43:30;;;;;;;23.37;21.10;;;20.60;99.90;;;;;;5016357;28;20410;-68
2022/08/28 05:46:01;;;;;;;22.10;19.70;;;20.40;99.90;;;;;;5016299;28;20195;-68
2022/08/28 05:48:31;;;;;;;22.30;20.20;;;20.70;99.90;;;;;;5040931;23;20557;-67
2022/08/28 05:51:02;;;;;;;21.80;19.30;;;20.70;99.90;;;;;;5030707;28;20415;-67
2022/08/28 05:53:27;;;;;;;20.03;18.03;;;20.40;99.90;;;;;;5015668;28;20382;-68
2022/08/28 05:55:53;;;;;;;22.33;20.10;;;20.30;99.90;;;;;;5014854;28;20399;-68
2022/08/28 05:58:28;;;;;;;19.77;17.97;;;20.50;99.90;;;;;;5015110;28;20168;-68
2022/08/28 06:01:05;;;;;;;20.73;18.63;;;20.70;99.90;;;;;;5015918;28;20231;-68
2022/08/28 06:03:30;;;;;;;21.90;19.70;;;20.90;99.90;;;;;;5014601;28;20398;-69
2022/08/28 06:05:58;;;;;;;22.43;20.20;;;20.60;99.90;;;;;;5014533;28;20454;-68
2022/08/28 06:08:24;;;;;;;20.80;18.70;;;20.30;99.90;;;;;;5013666;28;20164;-69
2022/08/28 06:10:49;;;;;;;21.70;19.40;;;20.40;99.90;;;;;;5013889;28;20412;-68
2022/08/28 06:13:15;;;;;;;22.47;20.27;;;20.40;99.90;;;;;;5015018;28;20165;-68
2022/08/28 06:15:42;;;;;;;19.33;17.57;;;20.30;99.90;;;;;;5015779;28;20183;-68
2022/08/28 06:18:08;;;;;;;22.60;20.20;;;20.30;99.90;;;;;;5015322;28;20172;-68
2022/08/28 06:20:42;;;;;;;22.03;19.77;;;20.40;99.90;;;;;;5015067;28;20517;-68
2022/08/28 06:23:09;;;;;;;21.87;19.70;;;20.50;99.90;;;;;;5014797;28;20218;-68
2022/08/28 06:25:47;;;;;;;21.60;19.50;;;20.40;99.90;;;;;;5014806;28;20446;-68
2022/08/28 06:28:18;;;;;;;19.73;17.70;;;20.40;99.90;;;;;;5013989;28;20445;-70
2022/08/28 06:30:44;;;;;;;21.47;19.37;;;20.30;99.90;;;;;;5015031;28;20426;-67
2022/08/28 06:33:11;;;;;;;21.97;19.83;;;20.30;99.90;;;;;;5015370;28;20933;-67
2022/08/28 06:35:41;;;;;;;21.97;19.70;;;20.20;99.90;;;;;;5014616;28;20196;-67
2022/08/28 06:38:07;;;;;;;21.53;19.30;;;20.10;99.90;;;;;;5015243;28;20953;-70
2022/08/28 06:40:41;;;;;;;21.77;19.63;;;20.10;99.90;;;;;;5015376;28;20510;-68
2022/08/28 06:43:08;;;;;;;21.47;19.23;;;20.20;99.90;;;;;;4994984;28;20415;-68
2022/08/28 06:45:34;;;;;;;19.17;17.23;;;20.40;99.90;;;;;;4995277;28;20937;-68
2022/08/28 06:48:00;;;;;;;18.77;16.70;;;20.40;99.90;;;;;;4994961;28;20485;-68
2022/08/28 06:50:26;;;;;;;20.27;17.03;;;20.20;99.90;;;;;;4994699;28;20490;-68
2022/08/28 06:52:52;;;;;;;18.47;16.77;;;20.50;99.90;;;;;;4994635;28;20484;-68
2022/08/28 06:55:17;;;;;;;20.17;18.00;;;20.30;99.90;;;;;;4994932;28;20164;-68
2022/08/28 06:57:43;;;;;;;18.30;16.40;;;20.40;99.90;;;;;;4994173;28;20169;-68
2022/08/28 07:00:09;;;;;;;18.20;16.17;;;20.40;99.90;;;;;;4994648;28;20192;-68
2022/08/28 07:02:35;;;;;;;17.67;15.87;;;20.70;99.90;;;;;;4994632;28;20201;-69
2022/08/28 07:05:00;;;;;;;18.07;16.47;;;21.00;99.90;;;;;;5002015;28;20544;-68
2022/08/28 07:07:26;;;;;;;18.13;16.40;;;21.10;99.90;;;;;;5013963;28;20695;-68
2022/08/28 07:09:51;;;;;;;17.30;15.30;;;21.20;99.90;;;;;;5014382;28;20208;-68
2022/08/28 07:12:17;;;;;;;15.53;13.93;;;21.30;99.90;;;;;;5014292;28;20600;-68
2022/08/28 07:14:43;;;;;;;18.17;14.10;;;21.40;99.90;;;;;;5013726;28;20176;-68
2022/08/28 07:17:09;;;;;;;17.67;15.77;;;21.30;99.90;;;;;;5012956;28;20192;-68
2022/08/28 07:19:36;;;;;;;16.97;15.40;;;21.30;99.90;;;;;;5012729;28;20450;-68
2022/08/28 07:22:02;;;;;;;17.03;15.33;;;21.20;99.90;;;;;;5013719;28;20417;-68
2022/08/28 07:24:30;;;;;;;17.60;15.80;;;21.30;99.90;;;;;;5013573;28;20525;-68
2022/08/28 07:26:56;;;;;;;17.70;15.87;;;21.00;99.90;;;;;;5013798;28;20769;-68
2022/08/28 07:29:22;;;;;;;17.40;15.77;;;21.00;99.90;;;;;;5013977;28;20461;-68
2022/08/28 07:31:50;;;;;;;16.37;14.87;;;21.20;99.90;;;;;;5013676;28;20657;-69
2022/08/28 07:34:19;;;;;;;18.40;16.00;;;21.50;99.90;;;;;;5013739;28;20175;-68
2022/08/28 07:36:45;;;;;;;15.50;13.50;;;21.50;99.90;;;;;;5012133;28;20423;-68
2022/08/28 07:39:13;;;;;;;15.00;13.53;;;21.50;99.90;;;;;;5013342;28;20430;-68
2022/08/28 07:41:41;;;;;;;15.27;13.83;;;21.60;99.90;;;;;;5014062;28;20414;-68
2022/08/28 07:46:55;;;;;;;17.00;14.77;;;21.70;99.90;;;;;;5014831;28;20962;-69
2022/08/28 07:49:22;;;;;;;16.97;14.90;;;21.50;99.90;;;;;;5014236;28;20540;-68
2022/08/28 07:51:47;;;;;;;15.40;14.00;;;21.10;99.90;;;;;;5013272;28;20553;-68
2022/08/28 07:54:14;;;;;;;16.27;14.77;;;21.10;99.90;;;;;;5011981;28;20426;-68
2022/08/28 07:56:39;;;;;;;16.13;14.63;;;21.10;99.90;;;;;;5012286;28;20175;-68
2022/08/28 07:59:08;;;;;;;16.87;15.23;;;20.90;99.90;;;;;;5013320;28;20423;-68
2022/08/28 08:01:38;;;;;;;18.83;16.37;;;20.90;99.90;;;;;;5027945;28;20172;-68
2022/08/28 08:04:06;;;;;;;15.43;14.00;;;20.90;99.90;;;;;;5012575;28;20398;-70
2022/08/28 08:06:33;;;;;;;15.60;14.10;;;21.20;99.90;;;;;;5012909;28;20414;-68
2022/08/28 08:08:59;;;;;;;16.23;14.73;;;21.10;99.90;;;;;;5013470;28;20911;-68
2022/08/28 08:11:25;;;;;;;16.23;14.73;;;21.20;99.90;;;;;;5009919;28;20429;-69
2022/08/28 08:13:52;;;;;;;16.30;14.57;;;21.50;99.90;;;;;;5003647;28;20426;-68
2022/08/28 08:16:20;;;;;;;16.67;15.07;;;21.20;99.90;;;;;;5011797;28;20465;-68
2022/08/28 08:18:47;;;;;;;16.77;15.13;;;21.30;99.90;;;;;;5012640;28;20430;-68
2022/08/28 08:21:15;;;;;;;19.83;17.90;;;21.60;99.90;;;;;;5013261;28;20407;-68
2022/08/28 08:23:41;;;;;;;17.27;15.53;;;21.60;99.90;;;;;;5012997;28;20403;-68
2022/08/28 08:26:10;;;;;;;16.80;15.30;;;21.90;99.90;;;;;;5012950;28;20764;-69
2022/08/28 08:28:37;;;;;;;17.03;15.53;;;22.20;99.90;;;;;;5012716;28;20167;-68
2022/08/28 08:31:08;;;;;;;26.20;15.87;;;22.10;99.90;;;;;;5012703;28;20916;-67
2022/08/28 08:33:37;;;;;;;14.93;13.63;;;22.30;99.90;;;;;;5012190;28;20403;-68
2022/08/28 08:36:03;;;;;;;15.70;14.10;;;22.30;99.90;;;;;;5013063;28;20506;-67
2022/08/28 08:38:29;;;;;;;15.97;14.57;;;22.00;99.90;;;;;;5011480;28;20497;-68
2022/08/28 08:40:56;;;;;;;17.73;16.10;;;22.50;99.90;;;;;;5012767;28;20884;-68
2022/08/28 08:43:24;;;;;;;17.53;15.83;;;22.50;99.90;;;;;;5013103;28;20505;-68
2022/08/28 08:45:51;;;;;;;13.43;12.23;;;22.60;99.90;;;;;;5012568;28;20490;-68
2022/08/28 08:48:25;;;;;;;16.57;14.83;;;22.90;99.90;;;;;;5012416;28;20954;-67
2022/08/28 08:50:52;;;;;;;15.83;14.43;;;22.50;99.90;;;;;;5013087;28;20806;-68
2022/08/28 08:53:43;;;;;;;17.20;15.40;;;22.10;99.90;;;;;;5012789;28;20494;-68
2022/08/28 08:56:15;;;;;;;13.53;12.30;;;22.30;99.90;;;;;;5012537;28;20777;-68
2022/08/28 08:58:46;;;;;;;16.30;14.80;;;22.80;99.90;;;;;;5012405;28;20454;-68
2022/08/28 09:01:30;;;;;;;17.43;14.80;;;23.10;99.90;;;;;;5012160;28;20447;-67
2022/08/28 09:03:58;;;;;;;17.77;16.00;;;23.00;99.90;;;;;;5012290;28;20911;-68
2022/08/28 09:06:48;;;;;;;15.77;14.27;;;22.70;99.90;;;;;;5011181;28;20463;-68
2022/08/28 09:09:28;;;;;;;14.43;13.13;;;23.20;99.90;;;;;;5012161;28;20995;-68
2022/08/28 09:11:59;;;;;;;14.57;12.87;;;23.00;99.90;;;;;;5012298;28;20915;-68
2022/08/28 09:14:43;;;;;;;15.67;14.17;;;23.20;99.90;;;;;;5012278;28;20406;-68
2022/08/28 09:17:11;;;;;;;13.17;12.07;;;23.30;99.90;;;;;;5011593;28;20415;-68
2022/08/28 09:19:37;;;;;;;15.07;13.77;;;23.50;99.90;;;;;;5012111;28;20974;-68
2022/08/28 09:22:03;;;;;;;14.17;12.87;;;23.70;99.90;;;;;;5012045;28;20414;-68
2022/08/28 09:24:32;;;;;;;16.57;14.93;;;22.90;99.90;;;;;;5012219;28;20451;-68
2022/08/28 09:27:03;;;;;;;15.77;14.07;;;23.10;99.90;;;;;;5011624;28;20172;-68
2022/08/28 09:29:41;;;;;;;12.87;11.77;;;23.40;99.90;;;;;;5012304;28;20966;-68
2022/08/28 09:32:22;;;;;;;15.07;13.50;;;23.90;99.90;;;;;;5027431;28;20407;-68
2022/08/28 09:35:12;;;;;;;15.30;13.17;;;23.40;99.90;;;;;;5012622;28;20425;-68
2022/08/28 09:37:38;;;;;;;15.27;13.87;;;22.90;99.90;;;;;;5019559;28;20447;-68
2022/08/28 09:43:25;;;;;;;13.47;12.07;;;23.20;99.90;;;;;;5019882;28;20445;-67
2022/08/28 09:43:25;;;;;;;13.63;12.27;;;23.70;99.90;;;;;;5015714;28;20419;-68
2022/08/28 09:46:14;;;;;;;12.50;11.30;;;23.90;99.90;;;;;;5015674;28;20895;-68
2022/08/28 09:48:46;;;;;;;14.63;13.33;;;24.20;99.90;;;;;;5015577;28;20546;-68
2022/08/28 09:51:27;;;;;;;12.50;11.13;;;24.40;99.90;;;;;;5015505;28;20403;-68
2022/08/28 09:53:53;;;;;;;12.57;11.37;;;24.40;99.90;;;;;;5015915;28;20431;-68
2022/08/28 09:56:32;;;;;;;13.60;12.20;;;24.50;99.90;;;;;;5016233;28;20422;-68
2022/08/28 09:59:08;;;;;;;12.70;11.43;;;24.70;99.90;;;;;;5015906;28;20431;-68
2022/08/28 10:01:47;;;;;;;10.90;9.80;;;24.50;99.90;;;;;;5030515;28;20873;-68
2022/08/28 10:04:16;;;;;;;13.63;12.40;;;25.00;99.90;;;;;;5022817;28;20403;-68
2022/08/28 10:07:04;;;;;;;12.07;11.07;;;24.20;99.90;;;;;;5023996;28;20431;-69
2022/08/28 10:09:53;;;;;;;11.90;10.90;;;24.40;99.90;;;;;;5023353;28;20526;-69
2022/08/28 10:12:30;;;;;;;12.00;10.90;;;23.90;99.90;;;;;;5021669;28;20399;-69
2022/08/28 10:15:13;;;;;;;10.73;9.73;;;23.40;99.90;;;;;;5035943;28;20414;-69
2022/08/28 10:18:06;;;;;;;11.80;10.80;;;23.60;99.90;;;;;;5022443;28;20783;-69
2022/08/28 10:21:09;;;;;;;11.97;10.87;;;23.90;99.90;;;;;;5023421;28;20430;-68
2022/08/28 10:24:13;;;;;;;11.77;10.67;;;24.20;99.90;;;;;;5021236;28;20880;-69
2022/08/28 10:27:06;;;;;;;11.60;10.60;;;24.60;99.90;;;;;;5017279;28;20431;-69
2022/08/28 10:29:57;;;;;;;10.70;9.80;;;24.70;99.90;;;;;;5015085;28;20767;-69
2022/08/28 10:32:47;;;;;;;11.83;10.67;;;25.00;99.90;;;;;;5015095;28;20387;-69
2022/08/28 10:35:40;;;;;;;12.00;10.77;;;24.60;99.90;;;;;;5015374;28;20479;-69
2022/08/28 10:38:16;;;;;;;12.70;9.90;;;24.20;99.90;;;;;;5013996;28;20511;-69
2022/08/28 10:41:07;;;;;;;9.93;9.03;;;24.30;99.90;;;;;;5014345;28;20484;-69
2022/08/28 10:43:50;;;;;;;10.03;9.23;;;24.70;99.90;;;;;;5015093;28;20920;-69
2022/08/28 10:46:23;;;;;;;12.50;9.73;;;24.80;99.90;;;;;;5014657;28;20450;-69
2022/08/28 10:49:00;;;;;;;11.13;9.80;;;25.20;99.90;;;;;;5014752;28;20457;-69
2022/08/28 10:51:38;;;;;;;10.63;9.60;;;25.30;99.90;;;;;;5013038;28;20538;-69
2022/08/28 10:54:16;;;;;;;10.00;9.00;;;25.90;99.90;;;;;;5014607;28;20888;-68
2022/08/28 10:56:59;;;;;;;8.50;7.67;;;26.70;99.90;;;;;;5014435;28;20388;-69
2022/08/28 10:59:28;;;;;;;8.33;7.30;;;27.90;99.90;;;;;;5011753;28;20963;-68
2022/08/28 11:01:54;;;;;;;8.70;7.90;;;28.00;99.90;;;;;;5014080;28;20419;-69
2022/08/28 11:04:22;;;;;;;8.90;8.03;;;28.10;99.90;;;;;;5013158;28;20541;-69
2022/08/28 11:07:00;;;;;;;8.40;7.60;;;28.00;99.90;;;;;;5000228;28;20420;-69
2022/08/28 11:09:44;;;;;;;8.93;8.03;;;29.30;99.90;;;;;;4994551;28;20793;-69
2022/08/28 11:12:17;;;;;;;10.00;8.80;;;28.70;99.90;;;;;;4994274;28;20396;-69
2022/08/28 11:14:46;;;;;;;9.57;8.33;;;27.90;99.90;;;;;;4994357;28;20935;-69
2022/08/28 11:17:20;;;;;;;8.30;7.50;;;28.10;99.90;;;;;;4994391;28;20415;-69
2022/08/28 11:20:12;;;;;;;7.77;7.07;;;29.50;98.70;;;;;;4993962;28;20470;-69
2022/08/28 11:22:46;;;;;;;8.10;7.30;;;29.20;99.30;;;;;;4993681;28;20400;-69
2022/08/28 11:25:25;;;;;;;7.90;6.60;;;29.60;99.50;;;;;;4993876;28;20462;-69
2022/08/28 11:28:30;;;;;;;8.00;7.40;;;30.30;99.30;;;;;;4994356;28;20395;-69
2022/08/28 11:31:04;;;;;;;7.90;7.30;;;31.30;96.70;;;;;;4993671;28;20431;-69
2022/08/28 11:33:44;;;;;;;9.97;8.60;;;29.10;99.30;;;;;;4993841;28;20407;-69
2022/08/28 11:36:33;;;;;;;11.80;8.10;;;28.30;99.90;;;;;;5003861;28;20411;-69
2022/08/28 11:39:03;;;;;;;8.13;7.53;;;27.70;99.90;;;;;;5003528;28;20431;-69
2022/08/28 11:41:32;;;;;;;10.00;8.23;;;27.60;99.90;;;;;;5013826;28;20436;-69
2022/08/28 11:44:13;;;;;;;8.10;7.40;;;28.10;99.90;;;;;;5013701;28;20499;-69
2022/08/28 11:46:38;;;;;;;8.63;7.33;;;28.90;99.80;;;;;;5013619;28;20400;-69
2022/08/28 11:49:33;;;;;;;8.63;7.83;;;29.70;98.50;;;;;;5040387;23;20517;-69
2022/08/28 11:52:36;;;;;;;8.80;8.00;;;30.50;97.20;;;;;;5032808;28;20258;-69
2022/08/28 11:55:29;;;;;;;8.27;7.47;;;29.40;98.10;;;;;;5027548;28;20492;-70
2022/08/28 11:58:12;;;;;;;8.30;7.60;;;30.10;97.80;;;;;;5033649;28;20382;-69
2022/08/28 12:00:50;;;;;;;7.50;6.90;;;30.00;97.10;;;;;;5032532;28;20441;-70
2022/08/28 12:03:23;;;;;;;6.27;5.73;;;29.70;98.30;;;;;;5033259;28;20393;-69
2022/08/28 12:05:53;;;;;;;7.60;7.00;;;30.10;97.30;;;;;;5033490;28;20885;-69
2022/08/28 12:08:43;;;;;;;7.30;6.70;;;29.80;97.80;;;;;;5032174;28;20533;-70
2022/08/28 12:11:30;;;;;;;7.53;6.83;;;30.70;95.90;;;;;;5032957;28;20415;-70
2022/08/28 12:13:57;;;;;;;6.00;5.50;;;30.30;95.90;;;;;;5033109;28;20937;-69
2022/08/28 12:16:23;;;;;;;7.10;6.20;;;30.90;95.20;;;;;;5033883;28;20437;-69
2022/08/28 12:18:48;;;;;;;7.37;6.73;;;31.50;93.60;;;;;;5032979;28;20433;-69
2022/08/28 12:21:19;;;;;;;6.43;5.97;;;30.80;94.30;;;;;;5033043;28;20648;-69
2022/08/28 12:23:58;;;;;;;6.37;5.87;;;30.70;94.20;;;;;;5032551;28;20175;-70
2022/08/28 12:26:37;;;;;;;9.33;7.00;;;30.70;94.60;;;;;;5033556;28;20829;-69
2022/08/28 12:29:16;;;;;;;7.00;6.40;;;30.80;93.90;;;;;;5033496;28;20471;-69
2022/08/28 12:32:13;;;;;;;6.37;5.83;;;30.50;94.90;;;;;;5033243;28;20386;-69
2022/08/28 12:35:06;;;;;;;7.73;6.53;;;31.10;94.40;;;;;;5033362;28;20394;-69
2022/08/28 12:37:32;;;;;;;7.93;7.13;;;30.10;95.20;;;;;;5032540;28;20410;-69
2022/08/28 12:40:06;;;;;;;6.53;5.93;;;31.60;93.30;;;;;;5032733;28;20529;-70
2022/08/28 12:42:36;;;;;;;6.53;5.93;;;31.60;91.40;;;;;;5032605;28;20254;-69
2022/08/28 12:45:05;;;;;;;7.37;6.67;;;30.60;92.70;;;;;;5032667;28;20446;-70
2022/08/28 12:47:33;;;;;;;6.67;5.97;;;31.00;92.00;;;;;;5032634;28;20402;-69
2022/08/28 12:50:26;;;;;;;7.10;5.90;;;31.70;92.30;;;;;;5032519;28;20498;-69
2022/08/28 12:52:55;;;;;;;8.77;6.40;;;32.20;92.50;;;;;;5032443;28;20521;-70
2022/08/28 12:55:22;;;;;;;7.67;6.20;;;31.40;93.20;;;;;;5032645;28;20410;-70